sensor_id;sensor_type;location;lat;lon;timestamp;pressure;altitude;pressure_sealevel;temperature;humidity
50464;BME280;62167;38.552;-121.478;2022-11-18T00:00:43;102182.31;;;16.54;40.05
50464;BME280;62167;38.552;-121.478;2022-11-18T00:03:09;102170.22;;;16.48;39.98
50464;BME280;62167;38.552;-121.478;2022-11-18T00:05:35;102166.47;;;16.41;41.19
50464;BME280;62167;38.552;-121.478;2022-11-18T00:08:01;102178.34;;;16.32;40.74
50464;BME280;62167;38.552;-121.478;2022-11-18T00:10:27;102175.09;;;16.20;41.39
50464;BME280;62167;38.552;-121.478;2022-11-18T00:12:53;102171.00;;;16.16;42.00
50464;BME280;62167;38.552;-121.478;2022-11-18T00:15:37;102169.47;;;16.05;42.34
50464;BME280;62167;38.552;-121.478;2022-11-18T00:18:03;102157.75;;;15.97;43.02
50464;BME280;62167;38.552;-121.478;2022-11-18T00:20:29;102156.31;;;15.85;42.97
50464;BME280;62167;38.552;-121.478;2022-11-18T00:22:55;102147.81;;;15.79;43.71
50464;BME280;62167;38.552;-121.478;2022-11-18T00:25:21;102146.94;;;15.71;43.98
50464;BME280;62167;38.552;-121.478;2022-11-18T00:27:46;102151.97;;;15.57;44.46
50464;BME280;62167;38.552;-121.478;2022-11-18T00:30:12;102149.19;;;15.49;44.93
50464;BME280;62167;38.552;-121.478;2022-11-18T00:32:38;102144.44;;;15.43;44.85
50464;BME280;62167;38.552;-121.478;2022-11-18T00:35:04;102151.66;;;15.35;45.18
50464;BME280;62167;38.552;-121.478;2022-11-18T00:37:30;102146.34;;;15.25;46.42
50464;BME280;62167;38.552;-121.478;2022-11-18T00:39:56;102138.97;;;15.09;45.79
50464;BME280;62167;38.552;-121.478;2022-11-18T00:42:22;102140.63;;;15.02;46.35
50464;BME280;62167;38.552;-121.478;2022-11-18T00:45:06;102141.91;;;14.90;46.88
50464;BME280;62167;38.552;-121.478;2022-11-18T00:47:32;102133.19;;;14.78;47.73
50464;BME280;62167;38.552;-121.478;2022-11-18T00:49:57;102126.84;;;14.69;47.65
50464;BME280;62167;38.552;-121.478;2022-11-18T00:52:23;102134.59;;;14.64;47.82
50464;BME280;62167;38.552;-121.478;2022-11-18T00:54:49;102131.13;;;14.54;48.23
50464;BME280;62167;38.552;-121.478;2022-11-18T00:57:15;102127.63;;;14.44;48.43
50464;BME280;62167;38.552;-121.478;2022-11-18T00:59:41;102119.34;;;14.27;48.44
50464;BME280;62167;38.552;-121.478;2022-11-18T01:02:06;102130.25;;;14.18;49.19
50464;BME280;62167;38.552;-121.478;2022-11-18T01:04:32;102118.97;;;14.05;49.65
50464;BME280;62167;38.552;-121.478;2022-11-18T01:06:58;102119.34;;;13.92;50.30
50464;BME280;62167;38.552;-121.478;2022-11-18T01:09:24;102131.25;;;13.81;49.11
50464;BME280;62167;38.552;-121.478;2022-11-18T01:11:50;102132.47;;;13.69;49.34
50464;BME280;62167;38.552;-121.478;2022-11-18T01:14:33;102129.72;;;13.51;50.41
50464;BME280;62167;38.552;-121.478;2022-11-18T01:16:59;102127.75;;;13.43;49.66
50464;BME280;62167;38.552;-121.478;2022-11-18T01:19:25;102127.81;;;13.34;50.10
50464;BME280;62167;38.552;-121.478;2022-11-18T01:21:51;102136.81;;;13.24;50.55
50464;BME280;62167;38.552;-121.478;2022-11-18T01:24:17;102131.56;;;13.13;50.88
50464;BME280;62167;38.552;-121.478;2022-11-18T01:26:43;102133.72;;;13.00;51.62
50464;BME280;62167;38.552;-121.478;2022-11-18T01:29:09;102129.19;;;12.91;51.87
50464;BME280;62167;38.552;-121.478;2022-11-18T01:31:36;102129.22;;;12.81;52.18
50464;BME280;62167;38.552;-121.478;2022-11-18T01:34:02;102128.09;;;12.74;52.61
50464;BME280;62167;38.552;-121.478;2022-11-18T01:36:28;102127.84;;;12.67;53.24
50464;BME280;62167;38.552;-121.478;2022-11-18T01:38:54;102123.41;;;12.57;53.95
50464;BME280;62167;38.552;-121.478;2022-11-18T01:41:21;102119.75;;;12.48;54.09
50464;BME280;62167;38.552;-121.478;2022-11-18T01:46:13;102127.00;;;12.28;54.44
50464;BME280;62167;38.552;-121.478;2022-11-18T01:48:40;102122.59;;;12.17;54.77
50464;BME280;62167;38.552;-121.478;2022-11-18T01:51:10;102118.47;;;12.04;54.77
50464;BME280;62167;38.552;-121.478;2022-11-18T01:53:39;102119.44;;;11.93;55.51
50464;BME280;62167;38.552;-121.478;2022-11-18T01:56:07;102127.13;;;11.88;55.77
50464;BME280;62167;38.552;-121.478;2022-11-18T01:58:48;102126.91;;;11.80;56.35
50464;BME280;62167;38.552;-121.478;2022-11-18T02:01:15;102125.47;;;11.76;56.27
50464;BME280;62167;38.552;-121.478;2022-11-18T02:03:41;102129.03;;;11.66;57.72
50464;BME280;62167;38.552;-121.478;2022-11-18T02:06:07;102123.19;;;11.61;57.67
50464;BME280;62167;38.552;-121.478;2022-11-18T02:08:34;102122.59;;;11.58;57.52
50464;BME280;62167;38.552;-121.478;2022-11-18T02:11:04;102125.13;;;11.50;57.24
50464;BME280;62167;38.552;-121.478;2022-11-18T02:13:33;102134.38;;;11.47;57.55
50464;BME280;62167;38.552;-121.478;2022-11-18T02:16:33;102130.50;;;11.40;57.42
50464;BME280;62167;38.552;-121.478;2022-11-18T02:21:25;102136.69;;;11.21;57.45
50464;BME280;62167;38.552;-121.478;2022-11-18T02:26:28;102130.06;;;11.04;58.38
50464;BME280;62167;38.552;-121.478;2022-11-18T02:29:08;102131.44;;;10.99;58.53
50464;BME280;62167;38.552;-121.478;2022-11-18T02:31:40;102132.13;;;10.91;58.72
50464;BME280;62167;38.552;-121.478;2022-11-18T02:34:33;102128.97;;;10.86;59.15
50464;BME280;62167;38.552;-121.478;2022-11-18T02:37:04;102134.91;;;10.80;59.31
50464;BME280;62167;38.552;-121.478;2022-11-18T02:39:36;102135.56;;;10.72;59.67
50464;BME280;62167;38.552;-121.478;2022-11-18T02:42:05;102138.03;;;10.64;60.32
50464;BME280;62167;38.552;-121.478;2022-11-18T02:44:32;102138.31;;;10.61;60.50
50464;BME280;62167;38.552;-121.478;2022-11-18T02:47:00;102142.25;;;10.57;60.20
50464;BME280;62167;38.552;-121.478;2022-11-18T02:49:32;102142.78;;;10.51;60.71
50464;BME280;62167;38.552;-121.478;2022-11-18T02:51:59;102150.41;;;10.46;61.43
50464;BME280;62167;38.552;-121.478;2022-11-18T02:54:25;102156.03;;;10.43;61.38
50464;BME280;62167;38.552;-121.478;2022-11-18T02:56:52;102151.16;;;10.36;61.41
50464;BME280;62167;38.552;-121.478;2022-11-18T02:59:19;102148.72;;;10.33;61.22
50464;BME280;62167;38.552;-121.478;2022-11-18T03:01:45;102150.38;;;10.25;62.13
50464;BME280;62167;38.552;-121.478;2022-11-18T03:04:11;102144.72;;;10.17;62.08
50464;BME280;62167;38.552;-121.478;2022-11-18T03:06:42;102146.94;;;10.11;62.28
50464;BME280;62167;38.552;-121.478;2022-11-18T03:11:41;102154.78;;;10.03;63.00
50464;BME280;62167;38.552;-121.478;2022-11-18T03:14:13;102153.38;;;9.99;63.51
50464;BME280;62167;38.552;-121.478;2022-11-18T03:19:14;102161.72;;;9.85;64.76
50464;BME280;62167;38.552;-121.478;2022-11-18T03:21:42;102157.31;;;9.84;64.43
50464;BME280;62167;38.552;-121.478;2022-11-18T03:26:37;102161.38;;;9.78;64.23
50464;BME280;62167;38.552;-121.478;2022-11-18T03:29:06;102147.69;;;9.70;64.63
50464;BME280;62167;38.552;-121.478;2022-11-18T03:31:37;102153.56;;;9.64;65.33
50464;BME280;62167;38.552;-121.478;2022-11-18T03:34:15;102150.38;;;9.59;65.51
50464;BME280;62167;38.552;-121.478;2022-11-18T03:36:44;102154.16;;;9.56;65.62
50464;BME280;62167;38.552;-121.478;2022-11-18T03:39:11;102159.19;;;9.50;65.25
50464;BME280;62167;38.552;-121.478;2022-11-18T03:41:42;102162.75;;;9.50;65.18
50464;BME280;62167;38.552;-121.478;2022-11-18T03:44:09;102166.50;;;9.48;65.08
50464;BME280;62167;38.552;-121.478;2022-11-18T03:46:40;102155.41;;;9.41;65.94
50464;BME280;62167;38.552;-121.478;2022-11-18T03:49:09;102156.63;;;9.37;65.56
50464;BME280;62167;38.552;-121.478;2022-11-18T03:51:39;102154.41;;;9.31;65.44
50464;BME280;62167;38.552;-121.478;2022-11-18T03:54:17;102143.03;;;9.27;65.85
50464;BME280;62167;38.552;-121.478;2022-11-18T03:56:46;102145.88;;;9.26;65.89
50464;BME280;62167;38.552;-121.478;2022-11-18T03:59:20;102138.28;;;9.20;66.26
50464;BME280;62167;38.552;-121.478;2022-11-18T04:01:56;102139.28;;;9.19;65.75
50464;BME280;62167;38.552;-121.478;2022-11-18T04:04:24;102142.94;;;9.18;66.16
50464;BME280;62167;38.552;-121.478;2022-11-18T04:06:59;102139.88;;;9.11;66.37
50464;BME280;62167;38.552;-121.478;2022-11-18T04:09:32;102141.84;;;9.09;66.30
50464;BME280;62167;38.552;-121.478;2022-11-18T04:12:05;102137.81;;;9.03;67.14
50464;BME280;62167;38.552;-121.478;2022-11-18T04:14:42;102138.88;;;9.01;66.79
50464;BME280;62167;38.552;-121.478;2022-11-18T04:17:11;102132.16;;;8.95;67.02
50464;BME280;62167;38.552;-121.478;2022-11-18T04:19:37;102131.94;;;8.87;67.41
50464;BME280;62167;38.552;-121.478;2022-11-18T04:22:03;102130.44;;;8.83;67.57
50464;BME280;62167;38.552;-121.478;2022-11-18T04:24:29;102134.13;;;8.82;67.69
50464;BME280;62167;38.552;-121.478;2022-11-18T04:26:55;102142.41;;;8.79;67.34
50464;BME280;62167;38.552;-121.478;2022-11-18T04:29:21;102133.72;;;8.75;67.85
50464;BME280;62167;38.552;-121.478;2022-11-18T04:31:47;102141.69;;;8.77;67.37
50464;BME280;62167;38.552;-121.478;2022-11-18T04:34:13;102125.78;;;8.74;68.04
50464;BME280;62167;38.552;-121.478;2022-11-18T04:36:39;102130.78;;;8.67;67.65
50464;BME280;62167;38.552;-121.478;2022-11-18T04:39:05;102127.34;;;8.65;68.00
50464;BME280;62167;38.552;-121.478;2022-11-18T04:41:31;102117.22;;;8.57;68.25
50464;BME280;62167;38.552;-121.478;2022-11-18T04:44:15;102117.78;;;8.50;68.50
50464;BME280;62167;38.552;-121.478;2022-11-18T04:46:41;102126.44;;;8.42;68.73
50464;BME280;62167;38.552;-121.478;2022-11-18T04:49:08;102114.84;;;8.42;68.99
50464;BME280;62167;38.552;-121.478;2022-11-18T04:51:34;102115.91;;;8.39;69.00
50464;BME280;62167;38.552;-121.478;2022-11-18T04:54:01;102114.22;;;8.38;69.20
50464;BME280;62167;38.552;-121.478;2022-11-18T04:56:26;102106.69;;;8.30;69.26
50464;BME280;62167;38.552;-121.478;2022-11-18T04:58:52;102122.22;;;8.27;69.30
50464;BME280;62167;38.552;-121.478;2022-11-18T05:01:18;102112.78;;;8.21;69.42
50464;BME280;62167;38.552;-121.478;2022-11-18T05:03:44;102119.97;;;8.21;69.33
50464;BME280;62167;38.552;-121.478;2022-11-18T05:06:10;102111.31;;;8.17;70.30
50464;BME280;62167;38.552;-121.478;2022-11-18T05:08:36;102112.38;;;8.15;70.06
50464;BME280;62167;38.552;-121.478;2022-11-18T05:11:05;102108.84;;;8.14;69.98
50464;BME280;62167;38.552;-121.478;2022-11-18T05:13:49;102104.91;;;8.07;70.31
50464;BME280;62167;38.552;-121.478;2022-11-18T05:16:15;102111.13;;;8.07;70.41
50464;BME280;62167;38.552;-121.478;2022-11-18T05:18:41;102101.59;;;8.03;70.38
50464;BME280;62167;38.552;-121.478;2022-11-18T05:21:07;102110.75;;;8.01;70.56
50464;BME280;62167;38.552;-121.478;2022-11-18T05:23:33;102111.94;;;7.97;71.37
50464;BME280;62167;38.552;-121.478;2022-11-18T05:26:05;102114.00;;;7.93;72.01
50464;BME280;62167;38.552;-121.478;2022-11-18T05:28:31;102108.97;;;7.89;72.06
50464;BME280;62167;38.552;-121.478;2022-11-18T05:30:56;102111.66;;;7.89;71.35
50464;BME280;62167;38.552;-121.478;2022-11-18T05:33:22;102105.78;;;7.84;71.48
50464;BME280;62167;38.552;-121.478;2022-11-18T05:35:48;102110.63;;;7.78;71.70
50464;BME280;62167;38.552;-121.478;2022-11-18T05:38:14;102112.91;;;7.72;71.82
50464;BME280;62167;38.552;-121.478;2022-11-18T05:40:43;102115.94;;;7.67;72.19
50464;BME280;62167;38.552;-121.478;2022-11-18T05:43:09;102126.00;;;7.64;72.08
50464;BME280;62167;38.552;-121.478;2022-11-18T05:45:42;102129.03;;;7.59;72.33
50464;BME280;62167;38.552;-121.478;2022-11-18T05:48:08;102126.59;;;7.56;72.71
50464;BME280;62167;38.552;-121.478;2022-11-18T05:50:35;102130.66;;;7.49;72.88
50464;BME280;62167;38.552;-121.478;2022-11-18T05:53:01;102126.41;;;7.46;73.28
50464;BME280;62167;38.552;-121.478;2022-11-18T05:55:28;102120.38;;;7.43;73.63
50464;BME280;62167;38.552;-121.478;2022-11-18T05:57:56;102126.41;;;7.34;73.92
50464;BME280;62167;38.552;-121.478;2022-11-18T06:00:22;102123.97;;;7.31;74.38
50464;BME280;62167;38.552;-121.478;2022-11-18T06:02:48;102128.56;;;7.28;74.16
50464;BME280;62167;38.552;-121.478;2022-11-18T06:05:16;102127.81;;;7.26;74.45
50464;BME280;62167;38.552;-121.478;2022-11-18T06:07:43;102138.66;;;7.25;74.17
50464;BME280;62167;38.552;-121.478;2022-11-18T06:10:11;102139.72;;;7.22;74.60
50464;BME280;62167;38.552;-121.478;2022-11-18T06:12:39;102130.09;;;7.20;74.71
50464;BME280;62167;38.552;-121.478;2022-11-18T06:15:11;102131.81;;;7.21;74.28
50464;BME280;62167;38.552;-121.478;2022-11-18T06:17:51;102120.44;;;7.17;74.98
50464;BME280;62167;38.552;-121.478;2022-11-18T06:20:19;102129.56;;;7.15;74.77
50464;BME280;62167;38.552;-121.478;2022-11-18T06:22:46;102122.72;;;7.11;75.15
50464;BME280;62167;38.552;-121.478;2022-11-18T06:25:13;102121.09;;;7.08;75.68
50464;BME280;62167;38.552;-121.478;2022-11-18T06:27:39;102115.09;;;7.05;75.42
50464;BME280;62167;38.552;-121.478;2022-11-18T06:30:05;102116.91;;;7.04;75.62
50464;BME280;62167;38.552;-121.478;2022-11-18T06:32:31;102109.94;;;7.01;75.68
50464;BME280;62167;38.552;-121.478;2022-11-18T06:34:57;102112.09;;;6.96;75.99
50464;BME280;62167;38.552;-121.478;2022-11-18T06:37:22;102099.88;;;6.92;76.44
50464;BME280;62167;38.552;-121.478;2022-11-18T06:39:48;102098.16;;;6.91;76.42
50464;BME280;62167;38.552;-121.478;2022-11-18T06:42:14;102103.66;;;6.90;76.10
50464;BME280;62167;38.552;-121.478;2022-11-18T06:45:00;102107.50;;;6.86;76.20
50464;BME280;62167;38.552;-121.478;2022-11-18T06:47:26;102108.03;;;6.78;76.82
50464;BME280;62167;38.552;-121.478;2022-11-18T06:49:52;102111.66;;;6.77;76.74
50464;BME280;62167;38.552;-121.478;2022-11-18T06:52:18;102103.63;;;6.77;76.29
50464;BME280;62167;38.552;-121.478;2022-11-18T06:54:44;102102.91;;;6.75;76.69
50464;BME280;62167;38.552;-121.478;2022-11-18T06:57:09;102107.47;;;6.73;76.57
50464;BME280;62167;38.552;-121.478;2022-11-18T06:59:35;102108.44;;;6.72;76.29
50464;BME280;62167;38.552;-121.478;2022-11-18T07:02:01;102104.38;;;6.66;76.67
50464;BME280;62167;38.552;-121.478;2022-11-18T07:04:27;102106.22;;;6.66;77.08
50464;BME280;62167;38.552;-121.478;2022-11-18T07:06:53;102098.28;;;6.64;76.59
50464;BME280;62167;38.552;-121.478;2022-11-18T07:09:19;102095.94;;;6.60;76.76
50464;BME280;62167;38.552;-121.478;2022-11-18T07:11:44;102095.38;;;6.55;77.48
50464;BME280;62167;38.552;-121.478;2022-11-18T07:14:11;102088.28;;;6.54;77.06
50464;BME280;62167;38.552;-121.478;2022-11-18T07:16:37;102086.59;;;6.53;77.29
50464;BME280;62167;38.552;-121.478;2022-11-18T07:19:07;102087.66;;;6.50;77.36
50464;BME280;62167;38.552;-121.478;2022-11-18T07:21:33;102080.69;;;6.47;77.32
50464;BME280;62167;38.552;-121.478;2022-11-18T07:23:59;102088.28;;;6.41;77.26
50464;BME280;62167;38.552;-121.478;2022-11-18T07:26:25;102088.41;;;6.39;77.50
50464;BME280;62167;38.552;-121.478;2022-11-18T07:28:52;102088.72;;;6.35;77.62
50464;BME280;62167;38.552;-121.478;2022-11-18T07:31:18;102086.25;;;6.32;77.84
50464;BME280;62167;38.552;-121.478;2022-11-18T07:33:44;102074.03;;;6.28;77.96
50464;BME280;62167;38.552;-121.478;2022-11-18T07:36:13;102083.88;;;6.27;77.62
50464;BME280;62167;38.552;-121.478;2022-11-18T07:38:39;102076.94;;;6.24;78.19
50464;BME280;62167;38.552;-121.478;2022-11-18T07:41:06;102071.66;;;6.23;78.12
50464;BME280;62167;38.552;-121.478;2022-11-18T07:43:33;102074.56;;;6.20;77.80
50464;BME280;62167;38.552;-121.478;2022-11-18T07:46:09;102067.50;;;6.19;77.97
50464;BME280;62167;38.552;-121.478;2022-11-18T07:48:35;102063.63;;;6.10;78.20
50464;BME280;62167;38.552;-121.478;2022-11-18T07:51:00;102069.72;;;6.12;78.51
50464;BME280;62167;38.552;-121.478;2022-11-18T07:53:28;102067.91;;;6.13;78.20
50464;BME280;62167;38.552;-121.478;2022-11-18T07:55:54;102065.22;;;6.13;77.75
50464;BME280;62167;38.552;-121.478;2022-11-18T07:58:20;102059.25;;;6.09;78.36
50464;BME280;62167;38.552;-121.478;2022-11-18T08:00:46;102058.47;;;6.07;77.74
50464;BME280;62167;38.552;-121.478;2022-11-18T08:03:12;102062.22;;;6.05;78.30
50464;BME280;62167;38.552;-121.478;2022-11-18T08:05:37;102056.94;;;6.03;77.73
50464;BME280;62167;38.552;-121.478;2022-11-18T08:08:03;102052.88;;;5.97;78.30
50464;BME280;62167;38.552;-121.478;2022-11-18T08:10:29;102048.59;;;5.95;79.15
50464;BME280;62167;38.552;-121.478;2022-11-18T08:12:55;102048.72;;;5.93;78.07
50464;BME280;62167;38.552;-121.478;2022-11-18T08:15:22;102045.28;;;5.91;78.38
50464;BME280;62167;38.552;-121.478;2022-11-18T08:17:48;102031.22;;;5.88;78.66
50464;BME280;62167;38.552;-121.478;2022-11-18T08:20:14;102029.72;;;5.84;78.62
50464;BME280;62167;38.552;-121.478;2022-11-18T08:22:39;102020.84;;;5.83;79.11
50464;BME280;62167;38.552;-121.478;2022-11-18T08:25:05;102022.84;;;5.80;78.90
50464;BME280;62167;38.552;-121.478;2022-11-18T08:27:31;102011.38;;;5.78;79.08
50464;BME280;62167;38.552;-121.478;2022-11-18T08:29:57;102007.22;;;5.73;78.99
50464;BME280;62167;38.552;-121.478;2022-11-18T08:32:23;102007.31;;;5.72;79.23
50464;BME280;62167;38.552;-121.478;2022-11-18T08:34:49;102011.72;;;5.73;79.09
50464;BME280;62167;38.552;-121.478;2022-11-18T08:37:15;102010.09;;;5.70;79.37
50464;BME280;62167;38.552;-121.478;2022-11-18T08:39:41;102006.75;;;5.67;79.85
50464;BME280;62167;38.552;-121.478;2022-11-18T08:42:10;102008.81;;;5.63;79.50
50464;BME280;62167;38.552;-121.478;2022-11-18T08:44:36;102010.81;;;5.60;79.49
50464;BME280;62167;38.552;-121.478;2022-11-18T08:47:02;102012.75;;;5.58;79.63
50464;BME280;62167;38.552;-121.478;2022-11-18T08:49:28;102011.97;;;5.56;79.76
50464;BME280;62167;38.552;-121.478;2022-11-18T08:51:54;102012.38;;;5.50;80.00
50464;BME280;62167;38.552;-121.478;2022-11-18T08:54:20;102011.72;;;5.46;81.01
50464;BME280;62167;38.552;-121.478;2022-11-18T08:56:46;102001.88;;;5.46;80.49
50464;BME280;62167;38.552;-121.478;2022-11-18T08:59:12;102000.28;;;5.44;80.45
50464;BME280;62167;38.552;-121.478;2022-11-18T09:01:38;101995.97;;;5.41;80.57
50464;BME280;62167;38.552;-121.478;2022-11-18T09:04:07;101990.88;;;5.38;81.04
50464;BME280;62167;38.552;-121.478;2022-11-18T09:06:33;101992.69;;;5.38;81.44
50464;BME280;62167;38.552;-121.478;2022-11-18T09:08:59;101990.94;;;5.37;81.65
50464;BME280;62167;38.552;-121.478;2022-11-18T09:11:25;101984.97;;;5.33;81.58
50464;BME280;62167;38.552;-121.478;2022-11-18T09:13:55;101985.81;;;5.34;82.01
50464;BME280;62167;38.552;-121.478;2022-11-18T09:16:22;101989.53;;;5.31;82.18
50464;BME280;62167;38.552;-121.478;2022-11-18T09:18:51;101986.84;;;5.31;82.01
50464;BME280;62167;38.552;-121.478;2022-11-18T09:21:17;101987.63;;;5.33;82.28
50464;BME280;62167;38.552;-121.478;2022-11-18T09:23:43;101983.25;;;5.32;82.30
50464;BME280;62167;38.552;-121.478;2022-11-18T09:26:10;101979.81;;;5.30;82.30
50464;BME280;62167;38.552;-121.478;2022-11-18T09:28:36;101978.84;;;5.31;82.12
50464;BME280;62167;38.552;-121.478;2022-11-18T09:31:03;101974.56;;;5.29;81.99
50464;BME280;62167;38.552;-121.478;2022-11-18T09:33:29;101984.59;;;5.25;82.34
50464;BME280;62167;38.552;-121.478;2022-11-18T09:35:55;101976.81;;;5.22;81.76
50464;BME280;62167;38.552;-121.478;2022-11-18T09:38:21;101976.03;;;5.20;81.96
50464;BME280;62167;38.552;-121.478;2022-11-18T09:41:03;101977.72;;;5.21;82.39
50464;BME280;62167;38.552;-121.478;2022-11-18T09:46:15;101965.53;;;5.17;82.69
50464;BME280;62167;38.552;-121.478;2022-11-18T09:48:46;101962.84;;;5.17;82.14
50464;BME280;62167;38.552;-121.478;2022-11-18T09:51:32;101958.59;;;5.14;82.92
50464;BME280;62167;38.552;-121.478;2022-11-18T09:54:02;101978.31;;;5.12;82.28
50464;BME280;62167;38.552;-121.478;2022-11-18T09:56:28;101973.19;;;5.09;82.52
50464;BME280;62167;38.552;-121.478;2022-11-18T09:58:54;101979.28;;;5.11;82.95
50464;BME280;62167;38.552;-121.478;2022-11-18T10:01:20;101979.41;;;5.09;82.42
50464;BME280;62167;38.552;-121.478;2022-11-18T10:03:46;101977.47;;;5.11;82.53
50464;BME280;62167;38.552;-121.478;2022-11-18T10:06:27;101976.53;;;5.12;82.04
50464;BME280;62167;38.552;-121.478;2022-11-18T10:09:08;101971.28;;;5.11;82.63
50464;BME280;62167;38.552;-121.478;2022-11-18T10:11:45;101967.97;;;5.07;83.07
50464;BME280;62167;38.552;-121.478;2022-11-18T10:14:24;101969.75;;;5.07;82.59
50464;BME280;62167;38.552;-121.478;2022-11-18T10:22:31;101945.72;;;5.07;83.12
50464;BME280;62167;38.552;-121.478;2022-11-18T10:24:58;101948.31;;;5.08;82.43
50464;BME280;62167;38.552;-121.478;2022-11-18T10:27:34;101938.19;;;5.13;82.80
50464;BME280;62167;38.552;-121.478;2022-11-18T10:30:05;101938.25;;;5.12;82.45
50464;BME280;62167;38.552;-121.478;2022-11-18T10:32:45;101936.66;;;5.09;82.43
50464;BME280;62167;38.552;-121.478;2022-11-18T10:35:26;101937.91;;;5.04;82.46
50464;BME280;62167;38.552;-121.478;2022-11-18T10:38:04;101938.97;;;5.01;82.73
50464;BME280;62167;38.552;-121.478;2022-11-18T10:40:31;101929.25;;;5.00;82.48
50464;BME280;62167;38.552;-121.478;2022-11-18T10:42:57;101926.38;;;5.03;81.87
50464;BME280;62167;38.552;-121.478;2022-11-18T10:45:29;101925.31;;;5.06;82.64
50464;BME280;62167;38.552;-121.478;2022-11-18T10:47:56;101923.16;;;4.98;82.75
50464;BME280;62167;38.552;-121.478;2022-11-18T10:52:57;101938.81;;;4.90;82.59
50464;BME280;62167;38.552;-121.478;2022-11-18T10:55:24;101935.38;;;4.88;82.83
50464;BME280;62167;38.552;-121.478;2022-11-18T10:57:52;101927.47;;;4.86;83.00
50464;BME280;62167;38.552;-121.478;2022-11-18T11:05:45;101928.06;;;4.77;84.00
50464;BME280;62167;38.552;-121.478;2022-11-18T11:08:18;101924.75;;;4.74;83.99
50464;BME280;62167;38.552;-121.478;2022-11-18T11:10:54;101920.06;;;4.77;83.55
50464;BME280;62167;38.552;-121.478;2022-11-18T11:13:20;101924.22;;;4.81;83.98
50464;BME280;62167;38.552;-121.478;2022-11-18T11:15:47;101925.00;;;4.83;83.47
50464;BME280;62167;38.552;-121.478;2022-11-18T11:18:17;101928.72;;;4.81;83.80
50464;BME280;62167;38.552;-121.478;2022-11-18T11:21:09;101927.00;;;4.80;84.18
50464;BME280;62167;38.552;-121.478;2022-11-18T11:23:35;101923.28;;;4.82;83.76
50464;BME280;62167;38.552;-121.478;2022-11-18T11:30:59;101922.34;;;4.83;83.89
50464;BME280;62167;38.552;-121.478;2022-11-18T11:33:38;101918.03;;;4.81;84.53
50464;BME280;62167;38.552;-121.478;2022-11-18T11:38:45;101932.44;;;4.78;84.33
50464;BME280;62167;38.552;-121.478;2022-11-18T11:41:19;101925.31;;;4.79;84.18
50464;BME280;62167;38.552;-121.478;2022-11-18T11:43:54;101930.75;;;4.77;84.23
50464;BME280;62167;38.552;-121.478;2022-11-18T11:49:17;101935.88;;;4.80;84.13
50464;BME280;62167;38.552;-121.478;2022-11-18T11:57:37;101920.72;;;4.81;84.17
50464;BME280;62167;38.552;-121.478;2022-11-18T12:00:13;101914.50;;;4.80;84.18
50464;BME280;62167;38.552;-121.478;2022-11-18T12:07:49;101911.00;;;4.80;84.25
50464;BME280;62167;38.552;-121.478;2022-11-18T12:12:53;101912.91;;;4.78;84.41
50464;BME280;62167;38.552;-121.478;2022-11-18T12:17:58;101920.06;;;4.77;84.74
50464;BME280;62167;38.552;-121.478;2022-11-18T12:20:35;101919.28;;;4.75;84.10
50464;BME280;62167;38.552;-121.478;2022-11-18T12:28:08;101917.59;;;4.74;84.06
50464;BME280;62167;38.552;-121.478;2022-11-18T12:30:34;101914.47;;;4.67;84.97
50464;BME280;62167;38.552;-121.478;2022-11-18T12:33:00;101920.75;;;4.66;85.02
50464;BME280;62167;38.552;-121.478;2022-11-18T12:35:26;101918.94;;;4.67;84.76
50464;BME280;62167;38.552;-121.478;2022-11-18T12:40:32;101909.41;;;4.63;85.34
50464;BME280;62167;38.552;-121.478;2022-11-18T12:42:58;101914.66;;;4.64;85.41
50464;BME280;62167;38.552;-121.478;2022-11-18T12:50:54;101912.38;;;4.58;84.02
50464;BME280;62167;38.552;-121.478;2022-11-18T12:53:30;101902.94;;;4.53;85.27
50464;BME280;62167;38.552;-121.478;2022-11-18T12:55:57;101898.56;;;4.52;85.03
50464;BME280;62167;38.552;-121.478;2022-11-18T12:58:24;101893.22;;;4.52;85.11
50464;BME280;62167;38.552;-121.478;2022-11-18T13:00:50;101899.50;;;4.51;84.71
50464;BME280;62167;38.552;-121.478;2022-11-18T13:03:30;101901.41;;;4.49;84.54
50464;BME280;62167;38.552;-121.478;2022-11-18T13:05:57;101893.41;;;4.49;85.09
50464;BME280;62167;38.552;-121.478;2022-11-18T13:08:23;101900.28;;;4.53;85.30
50464;BME280;62167;38.552;-121.478;2022-11-18T13:10:51;101889.38;;;4.56;85.05
50464;BME280;62167;38.552;-121.478;2022-11-18T13:13:37;101894.53;;;4.59;85.04
50464;BME280;62167;38.552;-121.478;2022-11-18T13:16:17;101895.50;;;4.58;85.28
50464;BME280;62167;38.552;-121.478;2022-11-18T13:19:02;101896.34;;;4.58;84.89
50464;BME280;62167;38.552;-121.478;2022-11-18T13:21:28;101889.22;;;4.59;85.60
50464;BME280;62167;38.552;-121.478;2022-11-18T13:24:15;101894.72;;;4.56;86.41
50464;BME280;62167;38.552;-121.478;2022-11-18T13:26:42;101899.13;;;4.57;86.05
50464;BME280;62167;38.552;-121.478;2022-11-18T13:34:57;101889.94;;;4.61;86.45
50464;BME280;62167;38.552;-121.478;2022-11-18T13:37:24;101888.16;;;4.61;86.27
50464;BME280;62167;38.552;-121.478;2022-11-18T13:39:50;101890.72;;;4.63;85.28
50464;BME280;62167;38.552;-121.478;2022-11-18T13:44:50;101884.53;;;4.62;86.12
50464;BME280;62167;38.552;-121.478;2022-11-18T13:48:00;101886.06;;;4.66;86.04
50464;BME280;62167;38.552;-121.478;2022-11-18T13:52:47;101885.09;;;4.67;85.41
50464;BME280;62167;38.552;-121.478;2022-11-18T13:55:15;101885.66;;;4.73;85.45
50464;BME280;62167;38.552;-121.478;2022-11-18T13:57:56;101885.84;;;4.69;85.20